createdAt,value
2022-12-11T00:00:31.265Z,22.58
2022-12-11T00:05:33.713Z,23.98
2022-12-11T00:10:37.999Z,25.40
2022-12-11T00:15:40.302Z,27.55
2022-12-11T00:20:42.853Z,21.65
2022-12-11T00:25:46.546Z,24.23
2022-12-11T00:30:48.865Z,24.17
2022-12-11T00:35:51.000Z,19.58
2022-12-11T00:40:53.314Z,21.27
2022-12-11T00:45:55.492Z,24.85
2022-12-11T00:50:57.976Z,20.40
2022-12-11T00:55:59.986Z,18.98
2022-12-11T01:01:14.882Z,20.13
2022-12-11T01:06:19.651Z,18.83
2022-12-11T01:11:21.859Z,18.15
2022-12-11T01:16:23.923Z,15.65
2022-12-11T01:21:26.077Z,18.05
2022-12-11T01:26:28.169Z,19.20
2022-12-11T01:31:30.360Z,20.42
2022-12-11T01:36:32.477Z,15.60
2022-12-11T01:41:34.659Z,20.52
2022-12-11T01:46:37.176Z,16.00
2022-12-11T01:51:53.801Z,16.42
2022-12-11T01:57:01.608Z,15.63
2022-12-11T02:07:55.915Z,15.38
2022-12-11T02:13:05.290Z,16.50
2022-12-11T02:18:18.500Z,19.60
2022-12-11T02:23:29.205Z,20.88
2022-12-11T02:28:42.597Z,15.05
2022-12-11T02:33:51.405Z,14.30
2022-12-11T02:38:55.070Z,18.65
2022-12-11T02:43:58.928Z,18.88
2022-12-11T02:49:03.154Z,18.48
2022-12-11T02:54:10.592Z,19.92
2022-12-11T02:59:26.207Z,21.42
2022-12-11T03:04:29.434Z,19.88
2022-12-11T03:09:32.413Z,18.95
2022-12-11T03:14:34.621Z,17.98
2022-12-11T03:19:47.900Z,19.08
2022-12-11T03:25:04.554Z,17.58
2022-12-11T03:30:14.176Z,16.00
2022-12-11T03:35:36.219Z,19.50
2022-12-11T03:40:42.744Z,15.32
2022-12-11T03:45:47.348Z,11.60
2022-12-11T03:50:50.658Z,15.18
2022-12-11T03:55:53.210Z,18.95
2022-12-11T04:00:55.181Z,14.07
2022-12-11T04:05:57.249Z,19.38
2022-12-11T04:11:17.545Z,19.40
2022-12-11T04:16:19.550Z,17.92
2022-12-11T04:21:40.124Z,18.88
2022-12-11T04:26:44.088Z,16.25
2022-12-11T04:31:46.216Z,19.45
2022-12-11T04:36:48.242Z,21.23
2022-12-11T04:41:50.287Z,18.70
2022-12-11T04:46:52.379Z,16.27
2022-12-11T04:51:54.489Z,20.23
2022-12-11T04:56:56.494Z,16.77
2022-12-11T05:01:58.641Z,17.33
2022-12-11T05:07:01.371Z,21.70
2022-12-11T05:12:03.941Z,19.98
2022-12-11T05:17:05.938Z,18.65
2022-12-11T05:22:07.931Z,15.77
2022-12-11T05:27:10.762Z,17.60
2022-12-11T05:32:12.798Z,16.80
2022-12-11T05:37:14.849Z,19.25
2022-12-11T05:42:16.806Z,19.40
2022-12-11T05:47:20.621Z,19.70
2022-12-11T05:52:22.600Z,21.27
2022-12-11T05:57:24.566Z,18.45
2022-12-11T06:02:26.603Z,21.58
2022-12-11T06:07:28.622Z,18.45
2022-12-11T06:12:31.476Z,9.05
2022-12-11T06:17:34.551Z,17.75
2022-12-11T06:22:36.701Z,13.85
2022-12-11T06:27:38.714Z,17.13
2022-12-11T06:32:41.221Z,13.85
2022-12-11T06:37:43.174Z,20.00
2022-12-11T06:47:48.386Z,16.23
2022-12-11T06:52:50.572Z,14.00
2022-12-11T06:57:52.921Z,14.82
2022-12-11T07:02:56.550Z,13.20
2022-12-11T07:07:58.769Z,14.25
2022-12-11T07:13:00.897Z,14.27
2022-12-11T07:18:03.051Z,11.50
2022-12-11T07:23:05.163Z,15.77
2022-12-11T07:28:09.129Z,14.43
2022-12-11T07:33:12.152Z,16.95
2022-12-11T07:38:14.344Z,15.60
2022-12-11T07:43:16.439Z,15.15
2022-12-11T07:48:18.647Z,14.23
2022-12-11T07:53:20.675Z,14.80
2022-12-11T07:58:22.773Z,13.25
2022-12-11T08:03:25.433Z,15.52
2022-12-11T08:08:27.517Z,14.50
2022-12-11T08:13:43.973Z,16.40
2022-12-11T08:18:50.710Z,14.85
2022-12-11T08:23:55.036Z,16.40
2022-12-11T08:28:59.731Z,19.17
2022-12-11T08:34:06.646Z,16.33
2022-12-11T08:39:10.764Z,16.75
2022-12-11T08:44:16.707Z,17.55
2022-12-11T08:49:32.715Z,18.88
2022-12-11T08:54:38.683Z,17.90
2022-12-11T08:59:43.944Z,20.40
2022-12-11T09:04:48.106Z,19.85
2022-12-11T09:09:55.514Z,20.25
2022-12-11T09:14:58.216Z,18.25
2022-12-11T09:20:00.352Z,19.30
2022-12-11T09:25:03.212Z,17.05
2022-12-11T09:30:06.146Z,19.13
2022-12-11T09:35:09.413Z,16.92
2022-12-11T09:40:12.893Z,17.00
2022-12-11T09:45:18.226Z,15.80
2022-12-11T09:50:31.559Z,15.70
2022-12-11T09:55:45.079Z,19.15
2022-12-11T10:01:01.372Z,16.98
2022-12-11T10:06:24.356Z,15.25
2022-12-11T10:11:26.328Z,13.25
2022-12-11T10:16:31.201Z,14.77
2022-12-11T10:21:42.403Z,15.13
2022-12-11T10:26:47.248Z,15.02
2022-12-11T10:32:03.103Z,16.58
2022-12-11T10:37:37.858Z,18.80
2022-12-11T10:42:45.526Z,16.40
2022-12-11T10:47:48.523Z,14.55
2022-12-11T10:52:55.164Z,11.00
2022-12-11T10:58:05.981Z,15.20
2022-12-11T11:03:33.795Z,11.95
2022-12-11T11:08:44.872Z,14.55
2022-12-11T11:13:49.062Z,13.98
2022-12-11T11:18:56.235Z,15.23
2022-12-11T11:23:58.968Z,12.95
2022-12-11T11:29:01.475Z,14.25
2022-12-11T11:34:12.021Z,15.15
2022-12-11T11:39:34.749Z,14.43
2022-12-11T11:45:00.811Z,12.95
2022-12-11T11:55:42.785Z,15.15
2022-12-11T12:00:44.904Z,12.45
2022-12-11T12:19:45.097Z,13.60
2022-12-11T12:24:53.738Z,14.13
2022-12-11T12:30:06.004Z,14.90
2022-12-11T12:35:38.673Z,13.02
2022-12-11T12:40:52.639Z,13.73
2022-12-11T12:46:10.992Z,14.30
2022-12-11T12:51:17.099Z,11.25
2022-12-11T12:56:21.179Z,11.77
2022-12-11T13:01:26.561Z,11.55
2022-12-11T13:06:38.450Z,13.65
2022-12-11T13:11:40.864Z,16.50
2022-12-11T13:16:52.245Z,16.10
2022-12-11T13:22:21.210Z,12.95
2022-12-11T13:27:25.465Z,13.43
2022-12-11T13:32:31.485Z,12.25
2022-12-11T13:37:36.873Z,14.60
2022-12-11T13:43:01.785Z,15.77
2022-12-11T13:48:16.638Z,14.85
2022-12-11T13:53:20.704Z,12.27
2022-12-11T13:58:24.083Z,13.70
2022-12-11T14:03:26.532Z,13.70
2022-12-11T14:08:35.517Z,12.90
2022-12-11T14:13:41.256Z,14.25
2022-12-11T14:18:43.429Z,13.85
2022-12-11T14:28:54.467Z,14.70
2022-12-11T14:34:03.571Z,16.80
2022-12-11T14:39:36.255Z,16.25
2022-12-11T14:45:21.662Z,14.98
2022-12-11T14:50:39.117Z,13.05
2022-12-11T14:55:49.899Z,15.50
2022-12-11T15:01:26.747Z,14.10
2022-12-11T15:06:32.293Z,13.85
2022-12-11T15:11:34.659Z,13.43
2022-12-11T15:16:41.387Z,11.90
2022-12-11T15:21:43.916Z,15.48
2022-12-11T15:26:48.206Z,14.27
2022-12-11T15:32:28.297Z,13.00
2022-12-11T15:37:38.756Z,12.63
2022-12-11T15:42:42.978Z,12.57
2022-12-11T15:47:46.861Z,18.08
2022-12-11T15:52:50.276Z,15.15
2022-12-11T15:57:56.487Z,17.63
2022-12-11T16:02:59.343Z,16.30
2022-12-11T16:08:01.826Z,16.83
2022-12-11T16:13:04.112Z,15.07
2022-12-11T16:23:15.523Z,14.48
2022-12-11T16:28:22.607Z,13.23
2022-12-11T16:33:25.388Z,15.57
2022-12-11T16:38:27.848Z,15.63
2022-12-11T16:43:30.912Z,13.32
2022-12-11T16:48:33.758Z,13.45
2022-12-11T16:53:36.956Z,12.88
2022-12-11T16:58:40.910Z,13.35
2022-12-11T17:03:45.314Z,10.68
2022-12-11T17:08:48.032Z,11.20
2022-12-11T17:13:59.047Z,12.07
2022-12-11T17:19:03.465Z,11.77
2022-12-11T17:24:07.020Z,11.27
2022-12-11T17:29:14.527Z,11.73
2022-12-11T17:34:17.140Z,11.55
2022-12-11T17:39:19.725Z,11.05
2022-12-11T17:44:22.782Z,12.25
2022-12-11T17:49:26.862Z,25.08
2022-12-11T17:54:41.980Z,11.02
2022-12-11T17:59:55.664Z,10.77
2022-12-11T18:05:02.323Z,13.00
2022-12-11T18:10:05.989Z,13.07
2022-12-11T18:15:09.770Z,16.25
2022-12-11T18:20:17.601Z,12.75
2022-12-11T18:25:20.826Z,14.77
2022-12-11T18:30:25.559Z,14.77
2022-12-11T18:35:35.480Z,13.10
2022-12-11T18:40:40.972Z,11.63
2022-12-11T18:45:49.176Z,10.30
2022-12-11T18:50:53.436Z,8.75
2022-12-11T18:56:00.321Z,9.10
2022-12-11T19:01:27.121Z,9.55
2022-12-11T19:06:41.033Z,10.18
2022-12-11T19:11:45.952Z,9.20
2022-12-11T19:16:52.621Z,11.18
2022-12-11T19:21:56.837Z,18.90
2022-12-11T19:27:00.928Z,14.63
2022-12-11T19:32:05.658Z,13.77
2022-12-11T19:37:11.444Z,16.63
2022-12-11T19:42:26.433Z,15.70
2022-12-11T19:47:32.445Z,16.83
2022-12-11T19:52:45.794Z,12.57
2022-12-11T19:57:54.226Z,15.18
2022-12-11T20:02:59.237Z,13.10
2022-12-11T20:08:27.676Z,12.30
2022-12-11T20:13:28.045Z,12.48
2022-12-11T20:18:31.410Z,11.95
2022-12-11T20:23:35.266Z,13.38
2022-12-11T20:34:05.830Z,10.27
2022-12-11T20:39:16.156Z,11.38
2022-12-11T20:44:25.680Z,11.13
2022-12-11T20:49:30.226Z,8.82
2022-12-11T20:54:33.851Z,10.48
2022-12-11T20:59:38.748Z,10.73
2022-12-11T21:04:42.666Z,9.80
2022-12-11T21:09:45.145Z,9.23
2022-12-11T21:14:48.527Z,8.48
2022-12-11T21:20:11.257Z,9.13
2022-12-11T21:25:14.150Z,8.40
2022-12-11T21:30:20.473Z,10.55
2022-12-11T21:35:24.974Z,8.48
2022-12-11T21:40:34.164Z,8.25
2022-12-11T21:46:00.957Z,8.43
2022-12-11T21:51:11.963Z,8.75
2022-12-11T21:56:24.525Z,7.43
2022-12-11T22:01:32.570Z,7.70
2022-12-11T22:06:35.210Z,6.68
2022-12-11T22:11:37.377Z,10.10
2022-12-11T22:16:41.400Z,10.52
2022-12-11T22:21:43.446Z,7.43
2022-12-11T22:26:45.632Z,8.18
2022-12-11T22:31:47.819Z,7.60
2022-12-11T22:36:49.981Z,8.52
2022-12-11T22:41:52.050Z,7.22
2022-12-11T22:46:54.022Z,7.55
2022-12-11T22:51:57.775Z,6.45
2022-12-11T22:56:59.764Z,7.57
2022-12-11T23:02:02.082Z,7.68
2022-12-11T23:07:04.522Z,6.72
2022-12-11T23:12:07.033Z,6.50
2022-12-11T23:17:10.403Z,9.25
2022-12-11T23:22:13.455Z,7.00
2022-12-11T23:27:15.654Z,7.20
2022-12-11T23:32:17.606Z,7.28
2022-12-11T23:37:20.254Z,9.20
2022-12-11T23:42:22.302Z,9.45
2022-12-11T23:47:24.415Z,6.90
2022-12-11T23:52:26.883Z,7.90
2022-12-11T23:57:28.828Z,7.20
